Time;durP1;ratioP1;P1;durP2;ratioP2;P2;SDS_P1;SDS_P2;PMS_P1;PMS_P2;Temp;Humidity;BMP_temperature;BMP_pressure;BME280_temperature;BME280_humidity;BME280_pressure;Samples;Min_cycle;Max_cycle;Signal;HPM_P1;HPM_P2
2021/08/05 00:00:41;;;;;;;11.63;5.03;;;;;;;21.78;58.36;94916.97;5119962;27;20419;-69
2021/08/05 00:03:09;;;;;;;13.43;6.05;;;;;;;21.72;58.93;94915.53;5122805;27;20035;-68
2021/08/05 00:05:36;;;;;;;14.52;5.57;;;;;;;21.68;58.71;94917.19;5115110;27;20257;-69
2021/08/05 00:08:04;;;;;;;10.20;5.18;;;;;;;21.72;58.32;94920.84;5114525;27;20091;-69
2021/08/05 00:10:31;;;;;;;15.40;6.25;;;;;;;21.75;58.30;94917.56;5116718;27;20416;-69
2021/08/05 00:12:59;;;;;;;11.25;5.55;;;;;;;21.76;59.58;94913.84;5112623;27;20059;-69
2021/08/05 00:15:26;;;;;;;15.38;6.60;;;;;;;21.74;58.99;94910.72;5113277;27;20031;-68
2021/08/05 00:17:53;;;;;;;14.98;5.53;;;;;;;21.76;59.26;94919.16;5113811;27;20036;-68
2021/08/05 00:20:20;;;;;;;27.38;8.55;;;;;;;21.62;60.52;94915.75;5112478;27;20035;-68
2021/08/05 00:22:47;;;;;;;13.18;6.07;;;;;;;21.55;60.43;94914.31;5114508;27;20097;-68
2021/08/05 00:25:14;;;;;;;15.70;6.70;;;;;;;21.63;60.80;94912.03;5097740;27;20050;-68
2021/08/05 00:27:40;;;;;;;14.63;5.93;;;;;;;21.65;59.93;94910.63;5113347;27;20069;-69
2021/08/05 00:30:09;;;;;;;16.00;5.97;;;;;;;21.72;60.07;94903.06;5101333;28;20415;-69
2021/08/05 00:32:36;;;;;;;15.68;6.10;;;;;;;21.78;59.41;94911.69;5118574;27;20401;-68
2021/08/05 00:35:05;;;;;;;17.60;7.80;;;;;;;21.73;59.68;94893.22;5110790;27;20096;-68
2021/08/05 00:37:32;;;;;;;12.85;6.05;;;;;;;21.83;59.52;94914.22;5094724;28;20035;-68
2021/08/05 00:39:59;;;;;;;16.33;6.55;;;;;;;21.78;59.62;94901.06;5120577;27;20035;-69
2021/08/05 00:42:26;;;;;;;17.98;7.50;;;;;;;21.86;58.85;94910.97;5100503;27;20044;-69
2021/08/05 00:44:53;;;;;;;16.48;6.05;;;;;;;21.86;59.13;94918.13;5111897;27;20294;-68
2021/08/05 00:47:20;;;;;;;15.30;6.25;;;;;;;21.84;59.47;94909.69;5096521;28;20470;-69
2021/08/05 00:49:47;;;;;;;16.52;5.78;;;;;;;21.77;59.44;94904.81;5105926;27;20031;-69
2021/08/05 00:52:14;;;;;;;17.35;5.90;;;;;;;21.80;59.66;94914.81;5112784;27;20039;-69
2021/08/05 00:54:41;;;;;;;19.52;6.38;;;;;;;21.78;60.77;94914.31;5127903;27;20055;-68
2021/08/05 00:57:08;;;;;;;12.13;6.00;;;;;;;21.72;60.17;94912.88;5117018;27;20036;-69
2021/08/05 00:59:35;;;;;;;12.77;6.35;;;;;;;21.75;59.55;94922.88;5085236;27;20043;-69
2021/08/05 01:02:10;;;;;;;15.20;6.75;;;;;;;21.80;59.79;94925.41;5098313;28;21646;-69
2021/08/05 01:04:39;;;;;;;12.50;6.03;;;;;;;21.85;59.91;94927.94;5105727;27;20402;-69
2021/08/05 01:07:14;;;;;;;12.40;6.45;;;;;;;21.86;60.28;94918.94;5098720;28;20047;-68
2021/08/05 01:09:47;;;;;;;17.15;7.55;;;;;;;21.88;60.10;94927.34;5119838;27;20043;-68
2021/08/05 01:12:42;;;;;;;11.90;5.93;;;;;;;21.88;60.03;94922.06;5096343;27;20070;-68
2021/08/05 01:15:29;;;;;;;15.38;5.95;;;;;;;21.77;62.05;94918.84;5119959;27;20445;-68
2021/08/05 01:18:00;;;;;;;15.68;6.32;;;;;;;21.70;62.03;94910.53;5094350;28;20410;-68
2021/08/05 01:20:31;;;;;;;19.35;7.75;;;;;;;21.57;61.90;94906.84;5094069;27;20104;-69
2021/08/05 01:23:39;;;;;;;14.35;6.85;;;;;;;21.65;62.20;94917.81;5110081;28;20570;-69
2021/08/05 01:26:24;;;;;;;18.52;7.57;;;;;;;21.61;62.35;94911.50;5108969;28;20070;-69
2021/08/05 01:28:50;;;;;;;16.83;6.15;;;;;;;21.53;63.63;94911.13;5109012;28;20435;-68
2021/08/05 01:31:21;;;;;;;15.02;6.40;;;;;;;21.53;63.85;94895.25;5111119;28;20036;-68
2021/08/05 01:33:50;;;;;;;17.67;7.28;;;;;;;21.54;64.14;94907.44;5100830;28;20516;-68
2021/08/05 01:36:19;;;;;;;12.23;6.75;;;;;;;21.49;64.90;94894.28;5113668;27;20096;-68
2021/08/05 01:38:48;;;;;;;15.10;7.28;;;;;;;21.47;64.68;94888.50;5094090;28;20047;-68
2021/08/05 01:41:16;;;;;;;14.90;7.22;;;;;;;21.50;65.46;94889.75;5091993;28;20039;-68
2021/08/05 01:43:45;;;;;;;15.98;7.72;;;;;;;21.42;66.72;94888.56;5093427;28;20040;-68
2021/08/05 01:46:13;;;;;;;16.60;7.70;;;;;;;21.41;66.64;94888.88;5111781;27;20469;-68
2021/08/05 01:48:40;;;;;;;20.30;7.68;;;;;;;21.45;66.88;94893.31;5112237;27;20069;-68
2021/08/05 01:51:07;;;;;;;14.95;6.78;;;;;;;21.42;66.97;94882.50;5098639;27;20070;-68
2021/08/05 01:53:35;;;;;;;23.38;6.97;;;;;;;21.52;66.54;94885.75;5098876;27;20092;-68
2021/08/05 01:56:02;;;;;;;13.15;7.22;;;;;;;21.66;66.18;94892.84;5122520;27;20054;-68
2021/08/05 01:58:29;;;;;;;18.63;7.40;;;;;;;21.54;66.76;94874.84;5113556;27;20032;-68
2021/08/05 02:00:56;;;;;;;15.40;6.80;;;;;;;21.71;65.98;94890.09;5096227;27;20101;-68
2021/08/05 02:03:23;;;;;;;21.73;8.98;;;;;;;21.76;65.57;94887.34;5114182;27;20588;-68
2021/08/05 02:06:02;;;;;;;31.85;8.35;;;;;;;21.72;65.49;94891.69;5115285;27;20426;-69
2021/08/05 02:08:58;;;;;;;22.92;7.55;;;;;;;21.71;65.61;94884.78;5099171;28;20047;-68
2021/08/05 02:11:27;;;;;;;25.88;7.72;;;;;;;21.67;67.12;94884.63;5106192;27;20496;-68
2021/08/05 02:13:58;;;;;;;24.77;8.05;;;;;;;21.67;67.60;94878.53;5105828;27;20488;-68
2021/08/05 02:16:28;;;;;;;15.23;7.10;;;;;;;21.53;68.56;94871.41;5114548;27;20073;-68
2021/08/05 02:18:56;;;;;;;14.30;6.70;;;;;;;21.58;67.53;94879.25;5102906;27;20774;-68
2021/08/05 02:21:26;;;;;;;20.83;8.02;;;;;;;21.42;68.53;94877.97;5120398;27;20110;-68
2021/08/05 02:23:56;;;;;;;19.88;8.38;;;;;;;21.25;69.38;94877.81;5122213;27;20039;-68
2021/08/05 02:26:24;;;;;;;14.75;7.93;;;;;;;21.26;69.36;94884.69;5100720;27;21583;-68
2021/08/05 02:28:52;;;;;;;14.05;7.50;;;;;;;21.33;68.72;94874.47;5100145;28;20039;-69
2021/08/05 02:31:19;;;;;;;13.63;7.15;;;;;;;21.32;68.90;94870.25;5120151;27;20511;-68
2021/08/05 02:33:49;;;;;;;14.52;7.95;;;;;;;21.25;69.40;94868.03;5123858;27;20039;-68
2021/08/05 02:36:16;;;;;;;16.95;7.40;;;;;;;21.25;70.19;94867.22;5113785;27;20073;-68
2021/08/05 02:38:43;;;;;;;11.25;6.72;;;;;;;21.27;70.78;94875.66;5127966;27;20032;-69
2021/08/05 02:41:12;;;;;;;14.20;7.97;;;;;;;21.27;71.53;94875.66;5122256;27;20047;-68
2021/08/05 02:43:39;;;;;;;12.02;8.00;;;;;;;21.19;72.35;94875.28;5102760;27;20045;-68
2021/08/05 02:46:07;;;;;;;14.07;8.35;;;;;;;21.14;73.28;94870.09;5117437;27;20475;-68
2021/08/05 02:48:35;;;;;;;16.92;7.47;;;;;;;21.16;73.53;94875.88;5117282;27;20031;-68
2021/08/05 02:51:04;;;;;;;21.55;8.55;;;;;;;21.18;73.58;94873.72;5104528;27;20050;-68
2021/08/05 02:53:32;;;;;;;18.38;9.18;;;;;;;21.22;73.30;94873.91;5107973;27;20055;-68
2021/08/05 02:55:59;;;;;;;15.15;8.00;;;;;;;21.17;74.19;94861.53;5118823;27;20035;-68
2021/08/05 02:58:26;;;;;;;14.10;7.95;;;;;;;21.24;73.99;94861.13;5106056;27;20159;-68
2021/08/05 03:00:53;;;;;;;16.35;8.00;;;;;;;21.24;73.90;94865.66;5112472;27;20039;-69
2021/08/05 03:03:22;;;;;;;20.42;8.07;;;;;;;21.25;74.04;94864.56;5119130;27;20040;-68
2021/08/05 03:05:51;;;;;;;17.85;9.02;;;;;;;21.25;74.03;94857.44;5114723;27;20069;-68
2021/08/05 03:08:18;;;;;;;15.77;7.72;;;;;;;21.26;74.36;94868.78;5118729;27;20054;-68
2021/08/05 03:10:45;;;;;;;17.02;8.93;;;;;;;21.19;75.01;94845.34;5114787;27;20124;-68
2021/08/05 03:13:12;;;;;;;16.90;8.43;;;;;;;21.14;76.70;94859.50;5110371;27;20074;-68
2021/08/05 03:15:39;;;;;;;17.95;8.73;;;;;;;21.18;77.30;94857.81;5114397;27;20085;-68
2021/08/05 03:18:06;;;;;;;12.90;8.35;;;;;;;21.28;76.41;94850.72;5111185;27;20050;-68
2021/08/05 03:20:34;;;;;;;14.90;9.48;;;;;;;21.34;77.00;94854.84;5113015;27;20047;-68
2021/08/05 03:23:01;;;;;;;19.10;8.95;;;;;;;21.20;78.67;94854.88;5111109;27;20035;-68
2021/08/05 03:25:28;;;;;;;17.77;9.02;;;;;;;21.12;79.20;94843.13;5110928;27;20044;-68
2021/08/05 03:27:55;;;;;;;20.20;9.55;;;;;;;21.18;79.68;94852.53;5113317;27;20069;-68
2021/08/05 03:30:21;;;;;;;18.90;9.85;;;;;;;21.18;79.96;94857.03;5114965;27;20050;-68
2021/08/05 03:32:48;;;;;;;18.45;8.88;;;;;;;21.14;80.19;94846.25;5114873;27;20035;-68
2021/08/05 03:35:15;;;;;;;15.07;8.48;;;;;;;21.16;80.08;94857.34;5113472;27;20050;-68
2021/08/05 03:37:42;;;;;;;16.40;9.80;;;;;;;21.23;79.70;94849.00;5107491;27;20397;-68
2021/08/05 03:40:09;;;;;;;18.33;9.07;;;;;;;21.09;80.89;94846.38;5109285;27;20051;-68
2021/08/05 03:42:36;;;;;;;14.35;9.27;;;;;;;21.18;81.15;94852.53;5110070;27;20127;-68
2021/08/05 03:45:03;;;;;;;13.60;8.98;;;;;;;21.17;81.43;94850.94;5095286;27;20047;-68
2021/08/05 03:47:30;;;;;;;11.57;9.15;;;;;;;21.22;81.59;94849.28;5110241;27;20056;-68
2021/08/05 03:49:57;;;;;;;14.93;9.35;;;;;;;21.24;80.95;94847.13;5108408;27;20047;-68
2021/08/05 03:52:23;;;;;;;12.73;8.85;;;;;;;21.24;80.65;94839.94;5107617;28;20447;-68
2021/08/05 03:55:00;;;;;;;14.25;8.82;;;;;;;21.20;80.38;94829.16;5110202;27;20111;-68
2021/08/05 03:57:27;;;;;;;17.10;9.00;;;;;;;21.30;80.80;94830.03;5114041;27;20118;-68
2021/08/05 03:59:54;;;;;;;15.45;9.50;;;;;;;21.27;80.96;94833.28;5113543;27;20040;-68
2021/08/05 04:02:20;;;;;;;17.13;9.30;;;;;;;21.16;81.06;94820.25;5117965;27;20540;-68
2021/08/05 04:04:47;;;;;;;19.17;10.18;;;;;;;21.20;80.75;94829.16;5113642;27;20423;-69
2021/08/05 04:07:18;;;;;;;15.63;9.25;;;;;;;21.16;80.67;94828.22;5114100;27;20408;-69
2021/08/05 04:09:45;;;;;;;14.23;9.65;;;;;;;21.20;80.25;94823.88;5121101;27;20035;-68
2021/08/05 04:12:11;;;;;;;18.77;9.10;;;;;;;21.26;79.95;94831.72;5120355;27;20055;-68
2021/08/05 04:14:38;;;;;;;16.42;8.25;;;;;;;21.22;78.92;94815.63;5119195;27;20423;-68
2021/08/05 04:17:05;;;;;;;14.40;8.32;;;;;;;21.33;77.99;94824.13;5118672;27;20039;-68
2021/08/05 04:19:32;;;;;;;13.60;7.63;;;;;;;21.39;77.15;94822.94;5128084;27;20043;-69
2021/08/05 04:21:59;;;;;;;12.38;7.40;;;;;;;21.43;77.09;94821.28;5126751;27;20033;-69
2021/08/05 04:24:25;;;;;;;13.77;7.47;;;;;;;21.56;75.19;94819.69;5125471;27;20141;-69
2021/08/05 04:26:52;;;;;;;15.85;8.18;;;;;;;21.62;74.72;94815.03;5121453;27;20516;-69
2021/08/05 04:29:19;;;;;;;14.52;7.93;;;;;;;21.68;74.18;94816.47;5122902;27;20031;-69
2021/08/05 04:31:46;;;;;;;23.55;8.85;;;;;;;21.66;73.28;94798.25;5124294;27;20519;-68
2021/08/05 04:34:14;;;;;;;15.75;6.78;;;;;;;21.63;73.55;94808.69;5121860;27;20070;-68
2021/08/05 04:36:44;;;;;;;9.73;7.30;;;;;;;21.71;72.78;94810.59;5122777;27;20048;-69
2021/08/05 04:39:10;;;;;;;17.58;7.78;;;;;;;21.76;72.42;94808.59;5122239;27;20484;-68
2021/08/05 04:41:37;;;;;;;13.10;7.35;;;;;;;21.83;72.40;94800.22;5127798;27;20038;-69
2021/08/05 04:44:04;;;;;;;15.93;7.57;;;;;;;21.96;72.52;94812.59;5132462;27;20074;-69
2021/08/05 04:46:31;;;;;;;10.30;6.82;;;;;;;22.00;72.51;94817.31;5126041;27;20044;-68
2021/08/05 04:49:00;;;;;;;13.93;7.88;;;;;;;22.08;71.94;94820.03;5108596;27;20035;-69
2021/08/05 04:51:31;;;;;;;13.07;7.40;;;;;;;22.07;71.26;94817.66;5129177;27;20027;-71
2021/08/05 04:54:03;;;;;;;17.35;7.35;;;;;;;22.23;71.23;94821.50;5124553;27;20113;-69
2021/08/05 04:56:31;;;;;;;18.30;7.55;;;;;;;22.33;71.11;94825.78;5132097;27;20121;-69
2021/08/05 04:58:58;;;;;;;16.40;7.72;;;;;;;22.46;70.63;94824.13;5131875;27;20087;-69
2021/08/05 05:01:25;;;;;;;23.92;9.18;;;;;;;22.56;70.60;94821.19;5130422;27;20045;-69
2021/08/05 05:03:52;;;;;;;31.73;10.93;;;;;;;22.49;70.75;94813.69;5129728;27;20039;-69
2021/08/05 05:06:19;;;;;;;20.00;11.18;;;;;;;22.59;69.84;94823.22;5130057;27;20045;-69
2021/08/05 05:08:46;;;;;;;25.35;12.13;;;;;;;22.56;70.83;94818.53;5129753;27;20032;-71
2021/08/05 05:11:13;;;;;;;26.52;10.73;;;;;;;22.65;71.50;94815.91;5111755;27;20133;-70
2021/08/05 05:13:41;;;;;;;29.25;10.73;;;;;;;22.74;72.68;94824.69;5116029;28;20538;-71
2021/08/05 05:16:09;;;;;;;27.20;9.00;;;;;;;22.74;72.00;94834.53;5115575;27;20047;-71
2021/08/05 05:18:35;;;;;;;33.13;10.20;;;;;;;22.73;72.33;94835.63;5116985;28;20091;-70
2021/08/05 05:21:02;;;;;;;38.83;8.90;;;;;;;22.65;72.84;94827.34;5125665;28;20048;-70
2021/08/05 05:23:29;;;;;;;49.38;10.38;;;;;;;22.75;72.87;94834.22;5125020;28;20036;-70
2021/08/05 05:25:56;;;;;;;39.67;9.77;;;;;;;22.64;73.13;94820.44;5123969;28;20035;-70
2021/08/05 05:28:23;;;;;;;21.73;9.00;;;;;;;22.69;75.09;94807.03;5113983;28;20039;-70
2021/08/05 05:30:50;;;;;;;17.63;8.73;;;;;;;22.75;75.12;94798.94;5116023;28;20039;-71
2021/08/05 05:33:16;;;;;;;11.43;8.18;;;;;;;23.13;73.89;94803.72;5111304;28;20040;-70
2021/08/05 05:35:43;;;;;;;17.20;8.43;;;;;;;23.35;73.32;94806.22;5116733;28;20051;-70
2021/08/05 05:38:10;;;;;;;12.20;8.23;;;;;;;23.54;72.60;94813.88;5118208;28;20043;-70
2021/08/05 05:40:38;;;;;;;19.52;8.90;;;;;;;23.75;71.51;94803.41;5107897;28;20038;-70
2021/08/05 05:43:06;;;;;;;22.30;9.45;;;;;;;23.85;70.53;94797.75;5127618;28;20047;-70
2021/08/05 05:45:33;;;;;;;17.60;9.77;;;;;;;24.00;70.68;94798.38;5123800;28;20050;-70
2021/08/05 05:48:00;;;;;;;14.43;9.60;;;;;;;24.09;72.10;94795.69;5124248;28;20024;-70
2021/08/05 05:50:30;;;;;;;23.30;10.07;;;;;;;24.15;71.33;94789.88;5128645;28;20463;-70
2021/08/05 05:52:58;;;;;;;25.45;10.95;;;;;;;24.26;71.11;94773.56;5119919;28;20078;-70
2021/08/05 05:55:25;;;;;;;26.10;9.52;;;;;;;24.38;70.72;94782.44;5121154;28;20073;-70
2021/08/05 05:57:52;;;;;;;19.73;9.18;;;;;;;24.50;70.17;94787.06;5128730;28;20043;-71
2021/08/05 06:00:19;;;;;;;18.50;9.57;;;;;;;24.59;70.62;94774.53;5123422;28;20068;-70
2021/08/05 06:02:46;;;;;;;13.90;8.75;;;;;;;24.70;69.77;94776.84;5117396;28;20047;-70
2021/08/05 06:05:13;;;;;;;15.57;9.85;;;;;;;24.77;69.88;94777.88;5119864;28;20050;-70
2021/08/05 06:07:48;;;;;;;17.98;9.02;;;;;;;24.91;69.66;94782.97;5125526;28;20050;-70
2021/08/05 06:10:20;;;;;;;13.23;9.05;;;;;;;24.97;69.56;94779.03;5126871;28;20031;-70
2021/08/05 06:12:47;;;;;;;16.27;9.05;;;;;;;25.07;68.62;94779.75;5112037;28;20098;-70
2021/08/05 06:15:16;;;;;;;12.82;9.30;;;;;;;25.09;68.75;94766.88;5116188;27;20042;-71
2021/08/05 06:17:44;;;;;;;19.33;9.82;;;;;;;25.18;68.45;94771.03;5131123;27;20042;-70
2021/08/05 06:20:13;;;;;;;15.75;9.77;;;;;;;25.28;68.88;94763.78;5127736;27;20044;-70
2021/08/05 06:22:40;;;;;;;12.73;9.07;;;;;;;25.41;68.62;94767.28;5127450;27;20401;-70
2021/08/05 06:25:08;;;;;;;13.40;8.95;;;;;;;25.31;68.64;94769.22;5126731;27;20500;-70
2021/08/05 06:27:36;;;;;;;17.00;9.52;;;;;;;25.49;69.40;94769.09;5134131;27;20411;-70
2021/08/05 06:30:06;;;;;;;17.27;9.18;;;;;;;25.44;68.32;94751.41;5131201;27;20103;-70
2021/08/05 06:32:33;;;;;;;15.00;9.90;;;;;;;25.64;67.82;94757.84;5129299;27;20055;-70
2021/08/05 06:35:00;;;;;;;22.10;9.10;;;;;;;25.81;65.66;94756.09;5126803;27;20450;-70
2021/08/05 06:37:27;;;;;;;13.30;8.32;;;;;;;25.90;65.73;94756.78;5126687;27;20053;-70
2021/08/05 06:39:54;;;;;;;17.00;8.45;;;;;;;26.00;63.76;94737.72;5134596;27;20031;-70
2021/08/05 06:42:21;;;;;;;21.00;8.25;;;;;;;26.10;63.60;94739.94;5130115;27;20039;-70
2021/08/05 06:44:48;;;;;;;17.63;8.80;;;;;;;26.25;62.93;94751.06;5129308;27;20040;-71
2021/08/05 06:47:15;;;;;;;16.13;8.43;;;;;;;26.35;61.33;94736.53;5127696;27;20050;-70
2021/08/05 06:49:43;;;;;;;15.50;7.55;;;;;;;26.34;61.41;94738.41;5121476;27;20099;-70
2021/08/05 06:52:10;;;;;;;13.50;7.15;;;;;;;26.50;60.54;94731.28;5112785;27;20048;-71
2021/08/05 06:54:37;;;;;;;14.85;7.65;;;;;;;26.59;62.88;94731.16;5130107;27;20035;-70
2021/08/05 06:57:04;;;;;;;16.63;7.68;;;;;;;26.71;61.57;94730.41;5131026;27;20039;-70
2021/08/05 06:59:31;;;;;;;16.92;8.13;;;;;;;26.79;61.58;94726.81;5133784;27;20088;-70
2021/08/05 07:01:59;;;;;;;17.75;8.07;;;;;;;27.03;59.85;94722.56;5115155;27;20035;-70
2021/08/05 07:04:27;;;;;;;15.23;7.63;;;;;;;27.15;58.55;94709.13;5132085;27;20040;-70
2021/08/05 07:06:54;;;;;;;15.85;7.60;;;;;;;27.34;57.41;94705.09;5133092;27;20062;-70
2021/08/05 07:09:20;;;;;;;15.25;7.05;;;;;;;27.37;58.05;94710.56;5132224;27;20046;-70
2021/08/05 07:11:47;;;;;;;13.57;7.65;;;;;;;27.57;56.78;94708.78;5133136;27;20058;-70
2021/08/05 07:14:14;;;;;;;14.88;7.05;;;;;;;27.67;57.11;94707.50;5131701;27;20512;-70
2021/08/05 07:16:41;;;;;;;14.80;7.70;;;;;;;27.81;55.75;94710.53;5133290;27;20043;-70
2021/08/05 07:19:08;;;;;;;18.33;8.20;;;;;;;27.81;55.68;94707.09;5129582;27;20126;-69
2021/08/05 07:21:34;;;;;;;13.98;6.95;;;;;;;28.05;55.04;94718.78;5128824;27;20093;-70
2021/08/05 07:24:01;;;;;;;14.38;7.35;;;;;;;28.10;55.05;94705.16;5113995;27;20435;-70
2021/08/05 07:26:28;;;;;;;18.02;7.68;;;;;;;28.32;53.35;94712.53;5118407;27;20520;-69
2021/08/05 07:28:55;;;;;;;15.20;7.57;;;;;;;28.42;53.04;94720.06;5126658;27;20092;-69
2021/08/05 07:31:22;;;;;;;15.07;8.35;;;;;;;28.71;54.42;94711.94;5120294;27;20036;-70
2021/08/05 07:33:50;;;;;;;15.23;8.20;;;;;;;28.71;52.64;94707.34;5109318;27;20416;-69
2021/08/05 07:36:17;;;;;;;23.38;8.13;;;;;;;28.93;53.52;94686.34;5121968;27;20412;-69
2021/08/05 07:38:44;;;;;;;12.20;8.27;;;;;;;28.93;53.37;94702.44;5124155;27;20514;-69
2021/08/05 07:41:11;;;;;;;16.08;8.75;;;;;;;29.13;52.32;94695.94;5128015;27;20046;-69
2021/08/05 07:43:37;;;;;;;20.60;9.98;;;;;;;29.23;52.20;94699.25;5130949;27;20044;-69
2021/08/05 07:46:04;;;;;;;16.80;8.32;;;;;;;29.35;51.41;94693.69;5129800;27;20080;-69
2021/08/05 07:48:32;;;;;;;20.70;8.10;;;;;;;29.39;51.56;94696.44;5124557;27;20036;-72
2021/08/05 07:50:59;;;;;;;19.38;8.02;;;;;;;29.40;52.29;94692.66;5109135;27;20062;-72
2021/08/05 07:53:26;;;;;;;13.65;8.63;;;;;;;29.54;51.01;94688.31;5108302;27;20058;-72
2021/08/05 07:55:52;;;;;;;18.50;8.60;;;;;;;29.62;48.39;94683.06;5106932;28;20047;-72
2021/08/05 07:58:19;;;;;;;16.42;8.63;;;;;;;29.73;48.70;94689.44;5106725;28;20039;-72
2021/08/05 08:00:46;;;;;;;18.42;8.82;;;;;;;29.69;50.10;94683.19;5109922;27;20044;-72
2021/08/05 08:03:15;;;;;;;13.55;8.50;;;;;;;29.90;50.40;94688.97;5109225;27;20041;-71
2021/08/05 08:05:44;;;;;;;26.33;8.80;;;;;;;30.08;49.63;94685.81;5106324;28;20463;-72
2021/08/05 08:08:12;;;;;;;19.85;9.18;;;;;;;30.34;47.92;94685.06;5105199;27;20111;-72
2021/08/05 08:10:39;;;;;;;20.58;8.73;;;;;;;30.42;46.20;94685.97;5089644;28;20093;-71
2021/08/05 08:13:20;;;;;;;19.15;8.63;;;;;;;30.34;44.81;94677.00;5107232;28;20068;-72
2021/08/05 08:15:47;;;;;;;23.45;8.75;;;;;;;30.16;46.20;94679.44;5107261;27;20035;-71
2021/08/05 08:18:15;;;;;;;20.10;8.23;;;;;;;30.45;45.21;94674.47;5107324;27;20040;-71
2021/08/05 08:20:43;;;;;;;22.15;9.00;;;;;;;30.64;45.08;94660.94;5092239;27;20043;-70
2021/08/05 08:23:10;;;;;;;20.58;8.77;;;;;;;30.69;46.56;94666.00;5111855;27;20043;-70
2021/08/05 08:25:36;;;;;;;23.15;9.02;;;;;;;30.74;44.13;94661.44;5106613;28;20046;-70
2021/08/05 08:28:04;;;;;;;31.23;9.93;;;;;;;30.95;45.03;94664.44;5108786;27;20051;-70
2021/08/05 08:30:32;;;;;;;24.77;8.40;;;;;;;31.13;43.39;94669.25;5106619;27;20118;-71
2021/08/05 08:32:59;;;;;;;21.75;8.25;;;;;;;31.23;44.54;94671.28;5105634;28;20097;-70
2021/08/05 08:35:26;;;;;;;21.05;8.30;;;;;;;31.42;42.87;94671.13;5106268;28;20077;-70
2021/08/05 08:37:53;;;;;;;21.48;7.97;;;;;;;31.57;40.50;94665.91;5106178;27;20949;-70
2021/08/05 08:40:20;;;;;;;25.15;9.27;;;;;;;31.60;41.88;94667.84;5106101;27;20046;-70
2021/08/05 08:42:46;;;;;;;20.30;8.73;;;;;;;31.91;41.16;94668.50;5089185;28;20508;-71
2021/08/05 08:45:14;;;;;;;24.02;9.75;;;;;;;32.11;41.20;94671.81;5105042;28;20042;-71
2021/08/05 08:47:47;;;;;;;44.10;10.85;;;;;;;32.03;38.75;94656.69;5106676;27;20061;-71
2021/08/05 08:50:15;;;;;;;17.38;8.85;;;;;;;32.26;40.09;94651.88;5107384;27;20039;-71
2021/08/05 08:52:45;;;;;;;22.00;9.07;;;;;;;32.43;41.05;94653.16;5109394;27;20055;-71
2021/08/05 08:55:13;;;;;;;32.63;8.32;;;;;;;32.57;40.53;94645.16;5108417;27;20055;-71
2021/08/05 08:57:39;;;;;;;17.98;8.40;;;;;;;32.78;39.94;94643.75;5113809;27;20043;-71
2021/08/05 09:00:08;;;;;;;23.77;7.93;;;;;;;32.78;38.71;94643.75;5097796;28;20131;-70
2021/08/05 09:02:35;;;;;;;18.80;7.60;;;;;;;32.75;38.17;94644.50;5112222;27;20103;-71
2021/08/05 09:05:06;;;;;;;22.92;8.50;;;;;;;32.68;39.92;94633.69;5113462;27;20047;-71
2021/08/05 09:07:34;;;;;;;19.35;7.85;;;;;;;33.01;38.91;94639.97;5112205;27;20031;-70
2021/08/05 09:10:01;;;;;;;21.40;7.93;;;;;;;33.26;39.25;94634.69;5108867;27;20108;-70
2021/08/05 09:12:28;;;;;;;23.23;9.55;;;;;;;33.42;38.19;94628.94;5090571;28;20054;-71
2021/08/05 09:14:55;;;;;;;29.95;8.75;;;;;;;33.59;38.36;94625.50;5110017;27;20036;-71
2021/08/05 09:17:25;;;;;;;13.23;7.32;;;;;;;33.76;37.95;94628.63;5110890;27;20047;-71
2021/08/05 09:19:56;;;;;;;17.52;8.88;;;;;;;33.83;36.22;94628.63;5108202;28;20042;-70
2021/08/05 09:22:38;;;;;;;20.70;7.95;;;;;;;34.13;37.76;94625.53;5109686;28;20046;-70
2021/08/05 09:25:33;;;;;;;32.65;8.25;;;;;;;34.28;35.15;94615.50;5111190;28;20462;-71
2021/08/05 09:28:17;;;;;;;17.67;8.27;;;;;;;34.34;35.65;94602.34;5108831;28;20067;-71
2021/08/05 09:30:44;;;;;;;17.95;7.18;;;;;;;34.47;37.24;94612.38;5113159;28;20040;-70
2021/08/05 09:33:14;;;;;;;29.40;9.20;;;;;;;34.43;33.74;94605.41;5109945;28;20047;-71
2021/08/05 09:35:44;;;;;;;27.90;8.52;;;;;;;34.73;34.53;94591.44;5112563;28;20416;-70
2021/08/05 09:38:43;;;;;;;24.33;8.05;;;;;;;34.98;34.63;94591.34;5107143;28;20061;-71
2021/08/05 09:41:10;;;;;;;22.15;7.63;;;;;;;35.22;31.51;94584.28;5093205;28;20062;-71
2021/08/05 09:43:38;;;;;;;22.25;7.63;;;;;;;35.36;32.86;94582.66;5113698;28;20044;-71
2021/08/05 09:46:05;;;;;;;16.30;8.20;;;;;;;35.33;32.75;94573.41;5109075;28;20047;-71
2021/08/05 09:48:37;;;;;;;19.73;7.63;;;;;;;35.54;32.88;94572.47;5109868;28;20036;-72
2021/08/05 09:51:16;;;;;;;28.77;8.77;;;;;;;35.41;31.69;94579.53;5112089;27;20039;-71
2021/08/05 09:53:56;;;;;;;18.58;7.30;;;;;;;35.53;30.73;94572.84;5114439;27;20042;-71
2021/08/05 09:56:23;;;;;;;16.58;7.63;;;;;;;35.87;30.50;94575.72;5110995;27;20552;-71
2021/08/05 09:58:51;;;;;;;25.15;7.65;;;;;;;36.07;30.94;94564.31;5110945;27;20366;-71
2021/08/05 10:01:18;;;;;;;26.25;8.10;;;;;;;36.14;28.99;94558.81;5112109;27;20058;-71
2021/08/05 10:03:45;;;;;;;18.90;7.18;;;;;;;36.25;30.84;94556.81;5113382;27;20036;-71
2021/08/05 10:06:12;;;;;;;26.05;7.25;;;;;;;36.21;29.69;94555.28;5110758;27;20036;-71
2021/08/05 10:08:41;;;;;;;22.98;7.70;;;;;;;36.14;29.21;94542.53;5111376;27;20043;-71
2021/08/05 10:11:08;;;;;;;22.83;8.68;;;;;;;36.24;28.54;94552.53;5111279;27;20048;-71
2021/08/05 10:13:41;;;;;;;22.63;11.55;;;;;;;36.52;29.68;94539.84;5110881;27;20059;-71
2021/08/05 10:16:10;;;;;;;38.20;8.73;;;;;;;36.57;29.44;94531.25;5111067;27;20048;-71
2021/08/05 10:18:38;;;;;;;25.10;8.02;;;;;;;36.92;27.83;94534.72;5108932;27;20436;-71
2021/08/05 10:21:08;;;;;;;20.95;8.57;;;;;;;37.37;28.90;94522.88;5111662;27;20047;-72
2021/08/05 10:23:37;;;;;;;26.58;8.20;;;;;;;37.57;28.15;94517.50;5108394;27;20058;-72
2021/08/05 10:26:07;;;;;;;27.65;8.00;;;;;;;37.79;27.39;94512.50;5107966;27;20042;-71
2021/08/05 10:28:37;;;;;;;26.15;7.72;;;;;;;38.00;26.80;94527.66;5112021;27;20050;-72
2021/08/05 10:31:07;;;;;;;24.85;8.88;;;;;;;38.44;27.32;94517.50;5109966;27;20051;-72
2021/08/05 10:33:35;;;;;;;19.98;8.25;;;;;;;38.23;24.90;94514.03;5091206;27;20111;-72
2021/08/05 10:36:03;;;;;;;24.65;9.05;;;;;;;37.75;25.31;94501.69;5110300;27;20062;-73
2021/08/05 10:38:30;;;;;;;29.50;8.02;;;;;;;38.47;25.00;94513.97;5111050;27;20500;-73
2021/08/05 10:41:00;;;;;;;22.83;7.95;;;;;;;38.73;25.03;94506.06;5111663;27;20043;-72
2021/08/05 10:43:27;;;;;;;21.35;7.80;;;;;;;39.14;25.99;94510.25;5109157;27;20051;-73
2021/08/05 10:45:55;;;;;;;25.27;8.18;;;;;;;39.42;24.38;94494.44;5109618;27;20035;-73
2021/08/05 10:48:23;;;;;;;24.70;8.80;;;;;;;39.38;25.54;94454.44;5112414;27;20036;-73
2021/08/05 10:50:50;;;;;;;19.17;8.32;;;;;;;39.65;25.36;94479.88;5109879;27;20074;-72
2021/08/05 10:53:40;;;;;;;26.90;7.03;;;;;;;39.73;25.73;94473.81;5113342;27;20039;-73
2021/08/05 10:56:16;;;;;;;23.63;7.90;;;;;;;39.18;26.12;94465.44;5111056;27;20043;-71
2021/08/05 10:59:01;;;;;;;28.50;8.98;;;;;;;39.46;21.98;94462.44;5114146;27;20057;-73
2021/08/05 11:01:45;;;;;;;27.70;8.20;;;;;;;39.59;22.55;94446.94;5110498;27;20048;-73
2021/08/05 11:04:45;;;;;;;27.67;9.00;;;;;;;39.04;23.96;94454.09;5113615;27;20056;-72
2021/08/05 11:07:24;;;;;;;24.30;9.10;;;;;;;39.26;20.39;94448.94;5099800;27;20074;-73
2021/08/05 11:09:52;;;;;;;27.73;8.80;;;;;;;39.90;20.87;94454.69;5112978;27;20032;-72
2021/08/05 11:12:40;;;;;;;27.50;9.85;;;;;;;39.82;20.69;94447.91;5112596;27;20501;-72
2021/08/05 11:15:25;;;;;;;28.73;9.10;;;;;;;40.30;19.14;94435.31;5111772;27;20132;-72
2021/08/05 11:18:10;;;;;;;25.63;8.55;;;;;;;40.63;19.35;94435.16;5110992;27;20492;-73
2021/08/05 11:20:39;;;;;;;22.00;8.98;;;;;;;40.07;21.77;94423.50;5109531;27;20035;-73
2021/08/05 11:23:25;;;;;;;33.03;9.48;;;;;;;40.06;20.89;94411.03;5110894;27;20511;-73
2021/08/05 11:25:52;;;;;;;19.80;9.43;;;;;;;40.33;20.56;94407.94;5113800;27;20036;-73
2021/08/05 11:28:24;;;;;;;28.20;11.50;;;;;;;40.24;14.39;94387.97;5110952;27;20500;-73
2021/08/05 11:30:58;;;;;;;32.67;11.98;;;;;;;40.23;14.35;94389.94;5109419;27;20047;-72
2021/08/05 11:33:38;;;;;;;34.72;11.30;;;;;;;40.32;12.95;94392.00;5107986;27;20046;-72